Celebrity Mercury — 9HJG9 — position and weather

sailwx.info

Track history (hours):
 
Tides and Currents Weather Stations Pressure Air Temp Water Temp Dewpoint Dewpoint Depression Visibility Wind Speed Wind Dir Waves Ship Positions

Celebrity Mercury

Last reported at 2017-Jul-22 12:03 UTC. Time now 2017-Jul-22 12:37 UTC.
Position N 38°29' E 017°10'.

Length 264 m; draft 8.5 m.

Type: Passenger vessel. MMSI: 249053000.

Date/timePositionNaut miles runAvg speedWind from/ knotsBaromVisibWave heightAir tempDewpointWater temp
2017-Jul-22 12:03N 38°29' E 017°10'116.6
2017-Jul-22 11:59N 38°30' E 017°10'816.3
2017-Jul-22 11:30N 38°36' E 017°17'816.2
2017-Jul-22 11:00N 38°43' E 017°23'916.4
2017-Jul-22 10:27N 38°50' E 017°30'816.4
2017-Jul-22 09:58N 38°56' E 017°36'816.3
2017-Jul-22 09:30N 39°02' E 017°42'816.3
2017-Jul-22 09:00N 39°09' E 017°49'816.1
2017-Jul-22 08:30N 39°15' E 017°55'816.1
2017-Jul-22 08:00N 39°22' E 018°01'816.2
2017-Jul-22 07:30N 39°28' E 018°08'916.7
2017-Jul-22 06:58N 39°35' E 018°15'816.9
2017-Jul-22 06:29N 39°41' E 018°22'1416.5
2017-Jul-22 05:37N 39°53' E 018°31'516.8
2017-Jul-22 05:19N 39°58' E 018°34'916.6
2017-Jul-22 04:46N 40°06' E 018°38'516.8
2017-Jul-22 04:30N 40°11' E 018°38'1016.4
2017-Jul-22 03:55N 40°21' E 018°38'  
2017-Jul-19 20:41N 40°42' E 019°05'  
2017-Jul-16 22:18N 36°02' E 015°00'412.0
2017-Jul-16 22:00N 36°02' E 014°56'611.5
2017-Jul-16 21:29N 36°00' E 014°49'611.9
2017-Jul-16 21:00N 35°57' E 014°42'612.1
2017-Jul-16 20:30N 35°55' E 014°35'4 8.2
2017-Jul-16 20:00N 35°53' E 014°31'0 0.0
2017-Jul-16 02:18N 35°53' E 014°30'1 1.7
2017-Jul-16 01:55N 35°54' E 014°31'3 7.0
2017-Jul-16 01:30N 35°55' E 014°34'510.8
2017-Jul-16 01:00N 35°59' E 014°39'611.8
2017-Jul-16 00:30N 36°03' E 014°45'612.3
2017-Jul-15 23:59N 36°07' E 014°50'912.6
2017-Jul-15 23:15N 36°13' E 014°59'313.0
2017-Jul-15 23:00N 36°15' E 015°02'713.0
2017-Jul-15 22:30N 36°20' E 015°08'612.8
2017-Jul-15 22:00N 36°24' E 015°14'612.7
2017-Jul-15 21:30N 36°28' E 015°20'612.4
2017-Jul-15 21:00N 36°33' E 015°24'5515.1
2017-Jul-15 17:20N 37°27' E 015°09'4 0.3
2017-Jul-15 05:34N 37°30' E 015°06'2110.2
2017-Jul-15 03:33N 37°25' E 015°31'112.9
2017-Jul-15 03:30N 37°25' E 015°32'2112.6
2017-Jul-15 01:49N 37°21' E 015°58'612.6
2017-Jul-15 01:21N 37°19' E 016°05'  
2017-Jul-12 17:46N 37°24' E 025°55'312.5
2017-Jul-12 17:30N 37°25' E 025°51'1113.0
2017-Jul-12 16:39N 37°29' E 025°38'214.1
2017-Jul-12 16:30N 37°30' E 025°36'713.8
2017-Jul-12 16:00N 37°32' E 025°28'713.6
2017-Jul-12 15:29N 37°32' E 025°19'4 8.0
2017-Jul-12 15:00N 37°28' E 025°18'1 0.8
2017-Jul-12 13:59N 37°28' E 025°19'0 0.0
2017-Jul-12 13:29N 37°28' E 025°19'0 0.0
2017-Jul-12 12:59N 37°28' E 025°19'0 0.0
2017-Jul-12 12:29N 37°28' E 025°19'  
Track history (hours):
 
Tides and Currents Weather Stations Pressure Air Temp Water Temp Dewpoint Dewpoint Depression Visibility Wind Speed Wind Dir Waves Ship Positions

Celebrity Mercury

Last reported at 2017-Jul-22 12:03 UTC. Time now 2017-Jul-22 12:37 UTC.
Position N 38°29' E 017°10'.

Length 264 m; draft 8.5 m.

Type: Passenger vessel. MMSI: 249053000.

Date/timePositionNaut miles runAvg speedWind from/ knotsBaromVisibWave heightAir tempDewpointWater temp
2017-Jul-22 12:03N 38°29' E 017°10'116.6
2017-Jul-22 11:59N 38°30' E 017°10'816.3
2017-Jul-22 11:30N 38°36' E 017°17'816.2
2017-Jul-22 11:00N 38°43' E 017°23'916.4
2017-Jul-22 10:27N 38°50' E 017°30'816.4
2017-Jul-22 09:58N 38°56' E 017°36'816.3
2017-Jul-22 09:30N 39°02' E 017°42'816.3
2017-Jul-22 09:00N 39°09' E 017°49'816.1
2017-Jul-22 08:30N 39°15' E 017°55'816.1
2017-Jul-22 08:00N 39°22' E 018°01'816.2
2017-Jul-22 07:30N 39°28' E 018°08'916.7
2017-Jul-22 06:58N 39°35' E 018°15'816.9
2017-Jul-22 06:29N 39°41' E 018°22'1416.5
2017-Jul-22 05:37N 39°53' E 018°31'516.8
2017-Jul-22 05:19N 39°58' E 018°34'916.6
2017-Jul-22 04:46N 40°06' E 018°38'516.8
2017-Jul-22 04:30N 40°11' E 018°38'1016.4
2017-Jul-22 03:55N 40°21' E 018°38'  
2017-Jul-19 20:41N 40°42' E 019°05'  
2017-Jul-16 22:18N 36°02' E 015°00'412.0
2017-Jul-16 22:00N 36°02' E 014°56'611.5
2017-Jul-16 21:29N 36°00' E 014°49'611.9
2017-Jul-16 21:00N 35°57' E 014°42'612.1
2017-Jul-16 20:30N 35°55' E 014°35'4 8.2
2017-Jul-16 20:00N 35°53' E 014°31'0 0.0
2017-Jul-16 02:18N 35°53' E 014°30'1 1.7
2017-Jul-16 01:55N 35°54' E 014°31'3 7.0
2017-Jul-16 01:30N 35°55' E 014°34'510.8
2017-Jul-16 01:00N 35°59' E 014°39'611.8
2017-Jul-16 00:30N 36°03' E 014°45'612.3
2017-Jul-15 23:59N 36°07' E 014°50'912.6
2017-Jul-15 23:15N 36°13' E 014°59'313.0
2017-Jul-15 23:00N 36°15' E 015°02'713.0
2017-Jul-15 22:30N 36°20' E 015°08'612.8
2017-Jul-15 22:00N 36°24' E 015°14'612.7
2017-Jul-15 21:30N 36°28' E 015°20'612.4
2017-Jul-15 21:00N 36°33' E 015°24'5515.1
2017-Jul-15 17:20N 37°27' E 015°09'4 0.3
2017-Jul-15 05:34N 37°30' E 015°06'2110.2
2017-Jul-15 03:33N 37°25' E 015°31'112.9
2017-Jul-15 03:30N 37°25' E 015°32'2112.6
2017-Jul-15 01:49N 37°21' E 015°58'612.6
2017-Jul-15 01:21N 37°19' E 016°05'  
2017-Jul-12 17:46N 37°24' E 025°55'312.5
2017-Jul-12 17:30N 37°25' E 025°51'1113.0
2017-Jul-12 16:39N 37°29' E 025°38'214.1
2017-Jul-12 16:30N 37°30' E 025°36'713.8
2017-Jul-12 16:00N 37°32' E 025°28'713.6
2017-Jul-12 15:29N 37°32' E 025°19'4 8.0
2017-Jul-12 15:00N 37°28' E 025°18'1 0.8
2017-Jul-12 13:59N 37°28' E 025°19'0 0.0
2017-Jul-12 13:29N 37°28' E 025°19'0 0.0
2017-Jul-12 12:59N 37°28' E 025°19'0 0.0
2017-Jul-12 12:29N 37°28' E 025°19'  

Dump ship's entire track history